Time;durP1;ratioP1;P1;durP2;ratioP2;P2;SDS_P1;SDS_P2;PMS_P1;PMS_P2;Temp;Humidity;BMP_temperature;BMP_pressure;BME280_temperature;BME280_humidity;BME280_pressure;Samples;Min_cycle;Max_cycle;Signal;HPM_P1;HPM_P2
2022/04/06 00:00:44;;;;;;;48.72;17.67;;;;;;;7.59;100.00;100061.19;4964075;28;20068;-75
2022/04/06 00:03:09;;;;;;;45.65;17.45;;;;;;;7.54;100.00;100055.63;4948887;28;20093;-75
2022/04/06 00:05:34;;;;;;;44.25;19.20;;;;;;;7.51;100.00;100048.84;4964390;28;20037;-75
2022/04/06 00:08:01;;;;;;;41.58;17.25;;;;;;;7.56;100.00;100045.53;4933973;28;20151;-75
2022/04/06 00:10:27;;;;;;;35.92;18.38;;;;;;;7.58;100.00;100044.28;4969978;28;21145;-75
2022/04/06 00:12:52;;;;;;;38.30;19.65;;;;;;;7.58;100.00;100028.19;4952772;28;20057;-75
2022/04/06 00:15:17;;;;;;;49.13;21.23;;;;;;;7.58;100.00;100035.38;4970963;28;20037;-75
2022/04/06 00:17:43;;;;;;;42.42;19.52;;;;;;;7.62;100.00;100028.59;4960776;28;20038;-75
2022/04/06 00:20:09;;;;;;;42.90;20.90;;;;;;;7.67;100.00;100015.34;4958053;28;20055;-75
2022/04/06 00:22:35;;;;;;;47.20;20.40;;;;;;;7.70;100.00;100020.28;4935069;28;20037;-75
2022/04/06 00:25:01;;;;;;;48.42;20.95;;;;;;;7.67;100.00;100010.00;4962734;28;20069;-75
2022/04/06 00:27:26;;;;;;;50.95;22.40;;;;;;;7.65;100.00;100010.22;4967836;28;20147;-74
2022/04/06 00:29:52;;;;;;;46.42;20.60;;;;;;;7.63;100.00;100008.78;4945745;28;20096;-74
2022/04/06 00:32:17;;;;;;;52.20;21.17;;;;;;;7.65;100.00;100009.38;4966268;28;20053;-75
2022/04/06 00:37:27;;;;;;;57.10;23.60;;;;;;;7.71;100.00;100011.22;4963508;28;20038;-75
2022/04/06 00:39:52;;;;;;;50.83;25.00;;;;;;;7.71;100.00;100003.16;4963028;28;20042;-74
2022/04/06 00:42:18;;;;;;;54.05;23.98;;;;;;;7.75;100.00;99999.00;4952417;28;20065;-74
2022/04/06 00:44:44;;;;;;;46.80;24.65;;;;;;;7.71;100.00;100003.16;4964152;28;20040;-74
2022/04/06 00:47:09;;;;;;;53.50;25.33;;;;;;;7.75;100.00;100003.56;4949371;28;20130;-74
2022/04/06 00:49:35;;;;;;;57.20;23.15;;;;;;;7.80;100.00;99999.22;4967655;28;20030;-75
2022/04/06 00:52:03;;;;;;;58.00;25.80;;;;;;;7.79;100.00;99996.72;4953615;28;20436;-74
2022/04/06 00:54:30;;;;;;;56.72;26.00;;;;;;;7.82;100.00;99989.06;4965026;28;20040;-74
2022/04/06 00:56:55;;;;;;;52.78;24.05;;;;;;;7.80;100.00;99980.44;4963718;28;20037;-74
2022/04/06 00:59:20;;;;;;;54.38;25.33;;;;;;;7.79;100.00;99973.44;4965667;28;20621;-74
2022/04/06 01:01:47;;;;;;;49.83;25.25;;;;;;;7.82;100.00;99973.00;4965880;28;20034;-74
2022/04/06 01:04:14;;;;;;;53.85;22.20;;;;;;;7.87;100.00;99975.03;4952194;28;20080;-75
2022/04/06 01:06:39;;;;;;;56.17;22.20;;;;;;;7.89;100.00;99981.00;4962571;28;20401;-74
2022/04/06 01:09:05;;;;;;;49.53;22.85;;;;;;;7.86;100.00;99976.91;4946605;28;20713;-74
2022/04/06 01:11:31;;;;;;;60.67;23.70;;;;;;;7.88;100.00;99969.44;4964985;28;20509;-74
2022/04/06 01:13:57;;;;;;;52.83;22.10;;;;;;;7.91;100.00;99967.38;4949865;28;20159;-74
2022/04/06 01:16:22;;;;;;;56.05;21.75;;;;;;;7.95;100.00;99965.91;4967608;28;20041;-74
2022/04/06 01:18:48;;;;;;;56.30;21.70;;;;;;;7.91;100.00;99962.03;4948390;28;20072;-74
2022/04/06 01:21:13;;;;;;;44.63;21.75;;;;;;;7.91;100.00;99967.38;4964610;28;20056;-74
2022/04/06 01:23:41;;;;;;;58.45;23.45;;;;;;;7.92;100.00;99964.47;4965218;28;20076;-74
2022/04/06 01:26:07;;;;;;;56.03;22.25;;;;;;;7.94;100.00;99957.03;4953555;28;20049;-75
2022/04/06 01:28:32;;;;;;;51.05;21.17;;;;;;;7.88;100.00;99953.34;4967467;28;21181;-75
2022/04/06 01:30:58;;;;;;;50.67;22.88;;;;;;;7.95;100.00;99953.31;4950476;28;20172;-74
2022/04/06 01:33:23;;;;;;;52.22;20.60;;;;;;;7.99;100.00;99948.34;4966169;28;20084;-74
2022/04/06 01:35:49;;;;;;;48.38;20.23;;;;;;;7.97;100.00;99950.41;4950842;28;20049;-74
2022/04/06 01:38:15;;;;;;;57.72;20.90;;;;;;;7.93;100.00;99941.97;4972242;28;20147;-74
2022/04/06 01:40:40;;;;;;;51.80;19.67;;;;;;;7.95;100.00;99944.47;4937901;28;20025;-75
2022/04/06 01:43:06;;;;;;;46.50;19.80;;;;;;;7.94;100.00;99940.13;4961758;28;20734;-75
2022/04/06 01:45:31;;;;;;;49.65;19.17;;;;;;;7.94;100.00;99945.50;4959734;28;20068;-75
2022/04/06 01:47:56;;;;;;;48.20;19.50;;;;;;;7.95;100.00;99941.78;4961745;28;20160;-75
2022/04/06 01:53:06;;;;;;;43.72;18.05;;;;;;;7.94;100.00;99934.78;4966522;28;20123;-75
2022/04/06 01:55:31;;;;;;;41.50;18.35;;;;;;;7.96;100.00;99927.31;4986299;28;20760;-75
2022/04/06 01:57:57;;;;;;;40.53;16.23;;;;;;;7.97;100.00;99924.44;4970748;28;20053;-75
2022/04/06 02:00:22;;;;;;;48.30;17.25;;;;;;;7.97;100.00;99927.13;4986132;28;20034;-75
2022/04/06 02:02:52;;;;;;;41.67;16.00;;;;;;;8.00;100.00;99923.16;4984874;28;22318;-75
2022/04/06 02:05:18;;;;;;;39.72;15.35;;;;;;;8.07;100.00;99919.41;4990720;28;20054;-76
2022/04/06 02:07:46;;;;;;;41.00;14.80;;;;;;;8.06;100.00;99923.09;4972116;28;20037;-75
2022/04/06 02:10:12;;;;;;;35.75;15.27;;;;;;;7.99;100.00;99910.78;4954072;28;20497;-75
2022/04/06 02:12:39;;;;;;;41.15;14.80;;;;;;;7.98;100.00;99919.88;4958703;28;20030;-75
2022/04/06 02:15:05;;;;;;;32.20;14.80;;;;;;;8.00;100.00;99917.78;4953833;28;20054;-76
2022/04/06 02:17:31;;;;;;;35.58;14.75;;;;;;;7.99;100.00;99913.47;4965183;28;20106;-75
2022/04/06 02:19:56;;;;;;;38.22;14.10;;;;;;;8.02;100.00;99913.03;4953331;28;20054;-75
2022/04/06 02:22:22;;;;;;;33.00;13.65;;;;;;;8.05;100.00;99915.28;4968482;28;20048;-75
2022/04/06 02:24:48;;;;;;;42.22;13.88;;;;;;;8.06;100.00;99912.38;4966355;28;20504;-74
2022/04/06 02:27:14;;;;;;;38.72;13.57;;;;;;;8.06;100.00;99906.19;4940911;28;20057;-74
2022/04/06 02:29:40;;;;;;;29.92;13.18;;;;;;;8.09;100.00;99889.66;4982400;28;20098;-74
2022/04/06 02:32:06;;;;;;;37.00;13.65;;;;;;;8.13;100.00;99906.97;4951360;28;20576;-74
2022/04/06 02:34:32;;;;;;;30.23;12.15;;;;;;;8.15;100.00;99899.53;4971353;28;20309;-74
2022/04/06 02:36:57;;;;;;;26.75;12.80;;;;;;;8.12;100.00;99889.22;4949957;28;20049;-74
2022/04/06 02:39:23;;;;;;;29.50;11.02;;;;;;;8.09;100.00;99892.34;4967007;28;20091;-74
2022/04/06 02:41:48;;;;;;;34.53;11.32;;;;;;;8.07;100.00;99894.41;4952900;28;21190;-74
2022/04/06 02:44:15;;;;;;;30.42;11.52;;;;;;;8.08;100.00;99888.03;4966632;28;20516;-75
2022/04/06 02:46:41;;;;;;;25.88;11.70;;;;;;;8.00;100.00;99886.44;4967278;28;20041;-74
2022/04/06 02:49:06;;;;;;;27.25;10.90;;;;;;;7.99;100.00;99883.97;4947441;28;20049;-74
2022/04/06 02:51:32;;;;;;;29.45;11.30;;;;;;;7.97;100.00;99880.69;4967425;28;20057;-74
2022/04/06 02:53:58;;;;;;;27.95;11.25;;;;;;;7.94;100.00;99876.59;4947667;28;20049;-74
2022/04/06 02:56:23;;;;;;;25.92;9.68;;;;;;;7.99;100.00;99873.25;4954211;28;20036;-74
2022/04/06 02:58:49;;;;;;;18.42;9.07;;;;;;;8.01;100.00;99882.72;4949183;28;20869;-74
2022/04/06 03:01:14;;;;;;;18.70;8.32;;;;;;;8.06;100.00;99877.50;4965859;28;20052;-74
2022/04/06 03:03:40;;;;;;;17.65;7.72;;;;;;;8.14;100.00;99876.41;4963219;28;20042;-74
2022/04/06 03:06:07;;;;;;;25.90;7.35;;;;;;;8.10;100.00;99875.22;4958224;28;20057;-74
2022/04/06 03:08:33;;;;;;;15.40;7.30;;;;;;;8.11;100.00;99866.13;4968175;28;20099;-74
2022/04/06 03:10:59;;;;;;;16.27;7.22;;;;;;;8.08;100.00;99856.66;4952711;28;20122;-74
2022/04/06 03:13:24;;;;;;;19.80;7.20;;;;;;;8.09;100.00;99868.22;4965733;28;20033;-74
2022/04/06 03:15:50;;;;;;;22.63;6.63;;;;;;;8.12;100.00;99868.59;4954051;28;20088;-74
2022/04/06 03:18:15;;;;;;;15.43;6.32;;;;;;;8.10;100.00;99865.28;4969290;28;20037;-74
2022/04/06 03:20:41;;;;;;;21.02;6.82;;;;;;;8.08;100.00;99861.22;4958101;28;20153;-74
2022/04/06 03:23:06;;;;;;;16.65;6.22;;;;;;;8.04;100.00;99862.69;4967439;28;20040;-75
2022/04/06 03:25:32;;;;;;;19.45;6.43;;;;;;;8.04;100.00;99860.84;4968079;28;20089;-77
2022/04/06 03:27:57;;;;;;;18.25;6.45;;;;;;;7.95;100.00;99853.28;4950133;28;23365;-77
2022/04/06 03:30:23;;;;;;;23.23;7.32;;;;;;;7.89;100.00;99853.09;4967030;28;20037;-76
2022/04/06 03:32:49;;;;;;;17.38;5.85;;;;;;;7.84;100.00;99849.44;4951987;28;20058;-76
2022/04/06 03:35:14;;;;;;;21.48;7.07;;;;;;;7.84;100.00;99858.31;4966544;28;20151;-76
2022/04/06 03:37:40;;;;;;;15.68;5.15;;;;;;;7.80;100.00;99851.75;4948562;28;20050;-76
2022/04/06 03:40:06;;;;;;;24.80;6.25;;;;;;;7.77;100.00;99843.31;4969807;28;20033;-76
2022/04/06 03:42:33;;;;;;;22.75;6.22;;;;;;;7.76;100.00;99847.88;4952109;28;20037;-75
2022/04/06 03:44:58;;;;;;;23.92;6.15;;;;;;;7.74;100.00;99854.47;4966253;28;20029;-75
2022/04/06 03:47:31;;;;;;;18.85;6.32;;;;;;;7.71;100.00;99853.06;4952727;28;23276;-75
2022/04/06 03:49:56;;;;;;;22.42;6.18;;;;;;;7.71;100.00;99850.38;4946896;28;20060;-75
2022/04/06 03:52:22;;;;;;;18.08;5.93;;;;;;;7.69;100.00;99852.47;4967851;28;20530;-75
2022/04/06 03:54:47;;;;;;;20.50;5.85;;;;;;;7.68;100.00;99844.63;4949481;28;20073;-76
2022/04/06 03:57:13;;;;;;;28.75;7.35;;;;;;;7.75;100.00;99840.84;4936845;28;20458;-76
2022/04/06 03:59:39;;;;;;;16.88;6.60;;;;;;;7.74;100.00;99839.22;4948656;28;20496;-76
2022/04/06 04:02:04;;;;;;;24.38;7.53;;;;;;;7.73;100.00;99837.59;4962793;28;20041;-76
2022/04/06 04:04:30;;;;;;;25.20;8.25;;;;;;;7.74;100.00;99839.22;4946666;28;21046;-73
2022/04/06 04:06:55;;;;;;;27.58;7.90;;;;;;;7.74;100.00;99841.91;4952083;28;20049;-75
2022/04/06 04:09:21;;;;;;;23.42;8.75;;;;;;;7.78;100.00;99840.41;4981041;28;20029;-75
2022/04/06 04:11:46;;;;;;;25.10;8.98;;;;;;;7.79;100.00;99842.06;4951632;28;20049;-76
2022/04/06 04:14:12;;;;;;;29.58;10.63;;;;;;;7.80;100.00;99837.53;4964060;28;20140;-80
2022/04/06 04:16:37;;;;;;;27.65;10.45;;;;;;;7.80;100.00;99838.34;4952170;28;21135;-78
2022/04/06 04:19:03;;;;;;;29.65;10.90;;;;;;;7.81;100.00;99829.25;4967877;28;20691;-78
2022/04/06 04:21:35;;;;;;;36.17;11.00;;;;;;;7.75;100.00;99824.75;4951340;28;20159;-78
2022/04/06 04:24:01;;;;;;;36.90;12.30;;;;;;;7.73;100.00;99826.84;4964506;28;20092;-78
2022/04/06 04:26:27;;;;;;;36.63;12.90;;;;;;;7.73;100.00;99818.00;4964645;28;22546;-78
2022/04/06 04:28:53;;;;;;;33.95;13.05;;;;;;;7.66;100.00;99815.38;4948187;28;20064;-79
2022/04/06 04:31:19;;;;;;;45.47;14.52;;;;;;;7.66;100.00;99818.06;4949397;28;20557;-77
2022/04/06 04:33:44;;;;;;;52.20;16.67;;;;;;;7.67;100.00;99822.38;4948986;28;20049;-76
2022/04/06 04:36:09;;;;;;;40.58;14.82;;;;;;;7.68;100.00;99813.28;4978585;28;20084;-76
2022/04/06 04:38:36;;;;;;;35.20;14.95;;;;;;;7.72;100.00;99808.28;4951564;28;20076;-76
2022/04/06 04:41:03;;;;;;;39.58;15.23;;;;;;;7.76;100.00;99815.69;4962162;28;20466;-76
2022/04/06 04:43:28;;;;;;;37.33;14.65;;;;;;;7.75;100.00;99813.22;4947271;28;20056;-76
2022/04/06 04:45:54;;;;;;;39.67;15.38;;;;;;;7.70;100.00;99808.53;4965097;28;20197;-75
2022/04/06 04:48:19;;;;;;;41.65;16.73;;;;;;;7.72;100.00;99814.50;4962880;28;20111;-75
2022/04/06 04:50:45;;;;;;;38.05;15.20;;;;;;;7.73;100.00;99788.50;4951233;28;20092;-75
2022/04/06 04:53:10;;;;;;;36.80;14.20;;;;;;;7.74;100.00;99795.50;4961786;28;20037;-75
2022/04/06 04:55:36;;;;;;;45.22;15.32;;;;;;;7.78;100.00;99797.53;4946155;28;20079;-75
2022/04/06 04:58:01;;;;;;;33.45;14.48;;;;;;;7.78;100.00;99797.53;4962911;28;20061;-75
2022/04/06 05:00:27;;;;;;;31.23;13.57;;;;;;;7.82;100.00;99792.53;4952860;28;20139;-75
2022/04/06 05:02:52;;;;;;;36.22;14.73;;;;;;;7.82;100.00;99773.78;4965895;28;20068;-76
2022/04/06 05:05:18;;;;;;;40.05;13.30;;;;;;;7.81;100.00;99789.03;4955607;28;20036;-76
2022/04/06 05:07:43;;;;;;;35.67;13.77;;;;;;;7.80;100.00;99792.78;4955391;28;22641;-76
2022/04/06 05:10:09;;;;;;;38.47;15.30;;;;;;;7.78;100.00;99796.69;4966019;28;20577;-76
2022/04/06 05:12:35;;;;;;;34.95;13.77;;;;;;;7.76;100.00;99780.84;4948035;28;20061;-76
2022/04/06 05:15:01;;;;;;;29.73;13.13;;;;;;;7.73;100.00;99786.66;4952202;28;20107;-76
2022/04/06 05:17:30;;;;;;;35.60;12.88;;;;;;;7.73;100.00;99783.16;4934384;28;20410;-77
2022/04/06 05:19:56;;;;;;;32.85;11.73;;;;;;;7.78;100.00;99781.44;4965905;28;20026;-77
2022/04/06 05:22:21;;;;;;;35.05;11.20;;;;;;;7.79;100.00;99788.47;4948978;28;21847;-77
2022/04/06 05:24:47;;;;;;;32.15;10.52;;;;;;;7.81;100.00;99774.81;4951367;28;20073;-76
2022/04/06 05:27:12;;;;;;;27.35;11.15;;;;;;;7.80;100.00;99778.53;4949624;28;20034;-76
2022/04/06 05:29:38;;;;;;;33.70;11.07;;;;;;;7.79;100.00;99785.78;4957643;28;20058;-76
2022/04/06 05:32:04;;;;;;;33.10;11.35;;;;;;;7.79;100.00;99776.88;4964298;28;20123;-76
2022/04/06 05:34:29;;;;;;;33.75;10.45;;;;;;;7.85;100.00;99784.06;4954462;28;20144;-76
2022/04/06 05:36:55;;;;;;;26.45;9.27;;;;;;;7.83;100.00;99765.53;4950272;28;20029;-75
2022/04/06 05:39:21;;;;;;;30.83;8.80;;;;;;;7.89;100.00;99780.69;4949517;28;20057;-76
2022/04/06 05:41:46;;;;;;;23.38;9.27;;;;;;;7.89;100.00;99782.56;4965334;28;20045;-76
2022/04/06 05:44:12;;;;;;;27.00;8.88;;;;;;;7.90;100.00;99773.50;4964974;28;20430;-76
2022/04/06 05:46:38;;;;;;;34.70;10.38;;;;;;;7.86;100.00;99766.91;4962664;28;20095;-76
2022/04/06 05:49:03;;;;;;;31.42;9.13;;;;;;;7.82;100.00;99779.94;4966293;28;20127;-75
2022/04/06 05:51:29;;;;;;;31.15;9.35;;;;;;;7.76;100.00;99772.81;4948515;28;20050;-76
2022/04/06 05:53:54;;;;;;;30.08;8.57;;;;;;;7.71;100.00;99771.81;4964546;28;20033;-76
2022/04/06 05:56:19;;;;;;;26.55;8.77;;;;;;;7.67;100.00;99768.75;4937844;28;21095;-76
2022/04/06 05:58:45;;;;;;;22.20;7.97;;;;;;;7.66;100.00;99767.13;4960457;28;20033;-76
2022/04/06 06:01:10;;;;;;;28.48;9.60;;;;;;;7.65;100.00;99766.31;4946069;28;20058;-75
2022/04/06 06:03:36;;;;;;;29.55;8.45;;;;;;;7.64;100.00;99755.78;4963934;28;20068;-76
2022/04/06 06:06:02;;;;;;;38.50;9.35;;;;;;;7.66;100.00;99764.44;4960628;28;20911;-75
2022/04/06 06:08:27;;;;;;;32.13;8.35;;;;;;;7.65;100.00;99766.31;4956383;28;20056;-75
2022/04/06 06:10:53;;;;;;;26.40;7.78;;;;;;;7.66;100.00;99767.13;4963974;28;20033;-75
2022/04/06 06:13:18;;;;;;;24.55;8.57;;;;;;;7.66;100.00;99769.81;4945867;28;20057;-75
2022/04/06 06:15:44;;;;;;;24.48;7.35;;;;;;;7.69;100.00;99777.41;4964608;28;20029;-74
2022/04/06 06:18:09;;;;;;;22.92;7.25;;;;;;;7.68;100.00;99777.59;4953760;28;20188;-76
2022/04/06 06:20:35;;;;;;;20.05;7.97;;;;;;;7.62;100.00;99771.28;4950030;28;20902;-75
2022/04/06 06:23:01;;;;;;;20.08;8.43;;;;;;;7.63;100.00;99780.97;4952456;28;20076;-76
2022/04/06 06:25:26;;;;;;;19.27;7.63;;;;;;;7.55;100.00;99770.53;4973050;28;20045;-79
2022/04/06 06:27:52;;;;;;;26.60;7.45;;;;;;;7.56;100.00;99772.97;4972172;28;20573;-77
2022/04/06 06:30:18;;;;;;;19.95;7.80;;;;;;;7.47;100.00;99763.56;4956176;28;20734;-77
2022/04/06 06:32:43;;;;;;;24.50;8.07;;;;;;;7.49;100.00;99776.75;4972903;28;20048;-77
2022/04/06 06:35:09;;;;;;;27.55;8.38;;;;;;;7.48;100.00;99773.25;4952339;28;20058;-76
2022/04/06 06:37:35;;;;;;;21.02;7.97;;;;;;;7.47;100.00;99779.63;4962128;28;20102;-77
2022/04/06 06:40:00;;;;;;;26.25;8.07;;;;;;;7.48;100.00;99765.22;4966003;28;20215;-77
2022/04/06 06:42:26;;;;;;;22.42;7.68;;;;;;;7.47;100.00;99768.09;4969920;28;21018;-78
2022/04/06 06:44:51;;;;;;;23.45;8.05;;;;;;;7.46;100.00;99771.81;4971661;28;20038;-78
2022/04/06 06:47:17;;;;;;;22.00;7.95;;;;;;;7.45;100.00;99760.28;4967352;28;20029;-78
2022/04/06 06:49:46;;;;;;;23.33;7.78;;;;;;;7.43;100.00;99767.72;4985072;28;20478;-78
2022/04/06 06:52:13;;;;;;;19.30;6.47;;;;;;;7.48;100.00;99764.41;4952346;28;20096;-78
2022/04/06 06:54:39;;;;;;;16.27;6.90;;;;;;;7.48;100.00;99742.97;4973610;28;20030;-78
2022/04/06 06:57:05;;;;;;;14.93;7.57;;;;;;;7.48;100.00;99759.03;4954195;28;20131;-78
2022/04/06 06:59:30;;;;;;;19.48;6.40;;;;;;;7.49;100.00;99755.31;4969829;28;20151;-78
2022/04/06 07:01:55;;;;;;;14.15;6.20;;;;;;;7.48;100.00;99748.31;4954605;28;20060;-77
2022/04/06 07:04:24;;;;;;;17.65;6.45;;;;;;;7.48;100.00;99748.31;4966222;28;20164;-77
2022/04/06 07:06:50;;;;;;;19.17;5.85;;;;;;;7.51;100.00;99745.19;4966671;28;20137;-77
2022/04/06 07:09:16;;;;;;;17.58;6.07;;;;;;;7.55;100.00;99733.81;4958003;28;20041;-77
2022/04/06 07:11:41;;;;;;;23.30;6.10;;;;;;;7.57;100.00;99749.66;4968277;28;20025;-77
2022/04/06 07:14:07;;;;;;;19.17;5.85;;;;;;;7.51;100.00;99747.88;4951286;28;20054;-77
2022/04/06 07:16:32;;;;;;;15.20;4.85;;;;;;;7.53;100.00;99753.84;4965345;28;20029;-77
2022/04/06 07:18:58;;;;;;;17.55;5.88;;;;;;;7.51;100.00;99751.38;4953755;28;20132;-77
2022/04/06 07:21:23;;;;;;;21.58;5.82;;;;;;;7.47;100.00;99752.03;4974653;28;20590;-77
2022/04/06 07:23:49;;;;;;;21.13;5.55;;;;;;;7.47;100.00;99749.34;4952749;28;21686;-77
2022/04/06 07:26:17;;;;;;;18.58;5.78;;;;;;;7.45;100.00;99738.84;4966516;28;20028;-77
2022/04/06 07:28:45;;;;;;;14.35;5.63;;;;;;;7.52;100.00;99746.84;4972829;28;20054;-78
2022/04/06 07:31:14;;;;;;;21.33;5.63;;;;;;;7.61;100.00;99740.97;4964077;28;20053;-75
2022/04/06 07:33:40;;;;;;;14.15;5.22;;;;;;;7.62;100.00;99733.75;4976017;28;21134;-76
2022/04/06 07:36:08;;;;;;;21.30;5.50;;;;;;;7.63;100.00;99708.59;4961455;28;20057;-76
2022/04/06 07:38:34;;;;;;;12.60;4.07;;;;;;;7.67;100.00;99733.09;4969813;28;20036;-77
2022/04/06 07:40:59;;;;;;;16.77;4.85;;;;;;;7.64;100.00;99739.72;4943637;28;20053;-76
2022/04/06 07:43:25;;;;;;;20.77;5.75;;;;;;;7.63;100.00;99730.03;4978781;28;20474;-76
2022/04/06 07:45:50;;;;;;;14.30;5.30;;;;;;;7.69;100.00;99718.44;4964099;28;20060;-77
2022/04/06 07:48:16;;;;;;;19.10;5.70;;;;;;;7.63;100.00;99730.03;4966749;28;20057;-78
2022/04/06 07:50:42;;;;;;;13.00;5.18;;;;;;;7.63;100.00;99730.84;4968506;28;20130;-79
2022/04/06 07:53:07;;;;;;;25.08;7.00;;;;;;;7.62;100.00;99739.13;4956837;28;20267;-78
2022/04/06 07:55:33;;;;;;;21.13;6.57;;;;;;;7.59;100.00;99728.84;4970529;28;23451;-80
2022/04/06 07:57:58;;;;;;;18.58;5.63;;;;;;;7.56;100.00;99726.59;4975282;28;20063;-80
2022/04/06 08:00:24;;;;;;;18.10;6.32;;;;;;;7.53;100.00;99724.34;4984745;28;20573;-80
2022/04/06 08:02:51;;;;;;;22.90;6.15;;;;;;;7.55;100.00;99719.59;4967300;28;22319;-80
2022/04/06 08:05:17;;;;;;;19.88;6.10;;;;;;;7.56;100.00;99718.56;4985568;28;20069;-79
2022/04/06 08:07:44;;;;;;;19.45;5.97;;;;;;;7.52;100.00;99722.72;4972475;28;21106;-79
2022/04/06 08:10:14;;;;;;;18.20;6.28;;;;;;;7.52;100.00;99717.38;4964601;28;20204;-79
2022/04/06 08:12:40;;;;;;;21.73;6.15;;;;;;;7.49;100.00;99710.56;4980876;28;20041;-79
2022/04/06 08:15:06;;;;;;;22.92;7.22;;;;;;;7.56;100.00;99715.88;4957351;28;20069;-79
2022/04/06 08:17:33;;;;;;;22.45;6.53;;;;;;;7.64;100.00;99716.41;4987483;28;20087;-78
2022/04/06 08:19:58;;;;;;;29.88;7.43;;;;;;;7.76;100.00;99703.09;4957361;28;20421;-79
2022/04/06 08:22:24;;;;;;;27.25;7.05;;;;;;;7.82;100.00;99701.38;4969786;28;20057;-79
2022/04/06 08:24:49;;;;;;;21.02;6.68;;;;;;;7.87;100.00;99704.22;4950645;28;20045;-79
2022/04/06 08:27:15;;;;;;;22.42;7.38;;;;;;;7.92;100.00;99711.59;4973656;28;20041;-81
2022/04/06 08:29:40;;;;;;;26.30;6.95;;;;;;;7.89;100.00;99707.50;4991586;28;21164;-80
2022/04/06 08:32:06;;;;;;;19.10;7.38;;;;;;;7.82;100.00;99675.38;4982497;28;20050;-80
2022/04/06 08:34:33;;;;;;;24.35;6.55;;;;;;;7.87;100.00;99688.97;4995715;28;20053;-79
2022/04/06 08:36:58;;;;;;;19.17;6.03;;;;;;;7.85;100.00;99696.38;4960663;28;20061;-79
2022/04/06 08:39:23;;;;;;;16.55;5.75;;;;;;;7.86;100.00;99691.84;4971745;28;20758;-79
2022/04/06 08:41:49;;;;;;;26.25;6.63;;;;;;;7.80;100.00;99665.94;4955843;28;20159;-79
2022/04/06 08:44:17;;;;;;;17.13;6.30;;;;;;;7.80;100.00;99695.44;4976355;28;20053;-79
2022/04/06 08:46:44;;;;;;;23.25;6.63;;;;;;;7.81;100.00;99689.84;4936018;28;21189;-78
2022/04/06 08:49:10;;;;;;;18.50;5.53;;;;;;;7.87;100.00;99683.59;4970206;28;20029;-78
2022/04/06 08:51:36;;;;;;;16.55;5.25;;;;;;;7.88;100.00;99690.59;4968909;28;20033;-78
2022/04/06 08:54:01;;;;;;;15.30;5.35;;;;;;;7.88;100.00;99695.94;4952870;28;20482;-74
2022/04/06 08:56:27;;;;;;;18.88;5.75;;;;;;;7.91;100.00;99689.31;4977901;28;20044;-72
2022/04/06 08:58:52;;;;;;;21.73;5.53;;;;;;;7.98;100.00;99683.91;4957905;28;20049;-74
2022/04/06 09:01:21;;;;;;;18.73;5.78;;;;;;;8.08;100.00;99678.81;4997504;28;20851;-73
2022/04/06 09:03:48;;;;;;;24.58;5.30;;;;;;;8.18;100.00;99678.28;4954494;28;20049;-74
2022/04/06 09:06:13;;;;;;;16.83;4.97;;;;;;;8.29;100.00;99664.94;4968375;28;20025;-75
2022/04/06 09:08:41;;;;;;;21.88;5.18;;;;;;;8.48;100.00;99672.97;4946537;28;20119;-76
2022/04/06 09:11:10;;;;;;;14.65;4.35;;;;;;;8.66;100.00;99670.22;4965039;28;21202;-76
2022/04/06 09:13:37;;;;;;;13.90;4.70;;;;;;;8.75;100.00;99668.84;4965244;28;20087;-76
2022/04/06 09:16:08;;;;;;;17.90;4.32;;;;;;;8.79;100.00;99667.34;4948856;28;20057;-76
2022/04/06 09:18:43;;;;;;;20.58;5.78;;;;;;;8.79;100.00;99669.22;4970834;28;20038;-77
2022/04/06 09:21:09;;;;;;;13.15;4.13;;;;;;;8.89;100.00;99660.59;4939775;28;20082;-77
2022/04/06 09:23:35;;;;;;;16.48;4.13;;;;;;;8.98;100.00;99661.88;4964773;28;20037;-77
2022/04/06 09:26:06;;;;;;;16.65;4.68;;;;;;;9.15;100.00;99657.47;4937976;28;20119;-76
2022/04/06 09:28:32;;;;;;;16.35;4.32;;;;;;;9.26;100.00;99659.34;4968914;28;20046;-76
2022/04/06 09:30:58;;;;;;;17.02;4.47;;;;;;;9.35;100.00;99667.91;4951340;28;20695;-76
2022/04/06 09:33:28;;;;;;;12.60;4.07;;;;;;;9.46;100.00;99663.56;4980267;28;20022;-76
2022/04/06 09:35:55;;;;;;;16.67;3.95;;;;;;;9.42;100.00;99667.78;4965357;28;23644;-76
2022/04/06 09:38:25;;;;;;;18.95;4.30;;;;;;;9.37;100.00;99655.06;4950321;28;20056;-76
2022/04/06 09:41:01;;;;;;;12.30;3.58;;;;;;;9.47;100.00;99670.56;4963394;28;20462;-76
2022/04/06 09:43:29;;;;;;;15.07;4.60;;;;;;;9.59;100.00;99663.34;4948602;28;20054;-76
2022/04/06 09:48:58;;;;;;;16.10;4.32;;;;;;;9.77;100.00;99659.69;4951169;28;20069;-75
2022/04/06 09:51:23;;;;;;;;;;;;;;;9.69;100.00;99652.81;4973710;28;20194;-75
2022/04/06 09:53:50;;;;;;;14.98;3.75;;;;;;;9.76;100.00;99656.19;4969110;28;19925;-75
2022/04/06 09:56:17;;;;;;;14.25;3.80;;;;;;;9.86;100.00;99657.44;4984779;28;20588;-75
2022/04/06 09:58:44;;;;;;;15.68;3.53;;;;;;;9.93;100.00;99658.97;4970743;28;20203;-75
2022/04/06 10:01:09;;;;;;;15.60;4.20;;;;;;;10.21;100.00;99650.13;4999667;28;20026;-75
2022/04/06 10:03:41;;;;;;;17.25;4.07;;;;;;;10.25;100.00;99637.84;4984602;28;20056;-75
2022/04/06 10:06:06;;;;;;;15.82;3.30;;;;;;;10.33;100.00;99650.09;4949460;28;20057;-75
2022/04/06 10:08:32;;;;;;;25.00;5.50;;;;;;;10.40;100.00;99650.75;4968498;28;20026;-75
2022/04/06 10:10:59;;;;;;;17.85;3.55;;;;;;;10.16;100.00;99636.53;4951103;28;20057;-75
2022/04/06 10:13:25;;;;;;;24.45;4.30;;;;;;;9.99;100.00;99641.03;4966532;28;20092;-74
2022/04/06 10:15:51;;;;;;;19.00;4.60;;;;;;;9.89;100.00;99641.63;4954386;28;21214;-75
2022/04/06 10:18:17;;;;;;;14.98;3.58;;;;;;;9.80;100.00;99627.75;4972130;28;20033;-74
2022/04/06 10:21:23;;;;;;;13.82;3.78;;;;;;;9.68;100.00;99629.63;4952731;28;20053;-75
2022/04/06 10:24:10;;;;;;;19.70;5.10;;;;;;;9.61;100.00;99637.00;4967549;28;20548;-75
2022/04/06 10:26:38;;;;;;;19.52;5.63;;;;;;;9.58;100.00;99632.09;4953966;28;20041;-75
2022/04/06 10:29:07;;;;;;;14.27;3.85;;;;;;;9.65;100.00;99630.13;4966196;28;20568;-75
2022/04/06 10:31:32;;;;;;;16.75;4.15;;;;;;;9.63;100.00;99632.22;4953486;28;21100;-76
2022/04/06 10:34:22;;;;;;;21.02;4.60;;;;;;;9.65;100.00;99623.91;4968948;28;20034;-75
2022/04/06 10:37:03;;;;;;;19.98;4.80;;;;;;;9.64;100.00;99617.72;4970010;28;20036;-75
2022/04/06 10:39:29;;;;;;;22.08;4.57;;;;;;;9.60;100.00;99618.44;4945444;28;20478;-75
2022/04/06 10:42:16;;;;;;;20.00;4.75;;;;;;;9.61;100.00;99622.75;4963730;28;20092;-75
2022/04/06 10:44:43;;;;;;;17.75;4.55;;;;;;;9.61;100.00;99617.38;4950018;28;20058;-75
2022/04/06 10:47:10;;;;;;;17.85;4.63;;;;;;;9.65;100.00;99607.78;4963107;28;20157;-73
2022/04/06 10:49:35;;;;;;;21.60;4.85;;;;;;;9.64;100.00;99603.47;4944939;28;20049;-75
2022/04/06 10:52:28;;;;;;;19.13;5.45;;;;;;;9.51;100.00;99605.38;4959661;28;20052;-75
2022/04/06 10:54:54;;;;;;;20.30;6.18;;;;;;;9.29;100.00;99602.44;4945805;28;20049;-76
2022/04/06 10:57:21;;;;;;;17.30;5.55;;;;;;;9.15;100.00;99603.75;4981790;28;20148;-80
2022/04/06 11:00:13;;;;;;;19.25;6.40;;;;;;;9.13;100.00;99599.69;4972773;28;20077;-79
2022/04/06 11:02:47;;;;;;;23.67;6.47;;;;;;;9.02;100.00;99609.34;5020570;28;20274;-79
2022/04/06 11:05:45;;;;;;;26.00;7.55;;;;;;;8.92;100.00;99584.94;5025825;28;20759;-79
2022/04/06 11:11:47;;;;;;;25.65;8.00;;;;;;;8.97;100.00;99593.13;4965770;28;20057;-80
2022/04/06 11:14:34;;;;;;;24.88;8.93;;;;;;;9.00;100.00;99589.97;4995014;28;20060;-80
2022/04/06 11:17:00;;;;;;;25.33;7.88;;;;;;;8.99;100.00;99593.72;5005010;28;20053;-80
2022/04/06 11:19:25;;;;;;;23.48;8.55;;;;;;;8.96;100.00;99595.00;5022916;28;20299;-79
2022/04/06 11:21:57;;;;;;;31.73;8.05;;;;;;;8.94;100.00;99580.97;4999806;28;20807;-79
2022/04/06 11:24:25;;;;;;;26.23;8.30;;;;;;;8.93;100.00;99579.34;4981083;28;20026;-78
2022/04/06 11:26:51;;;;;;;30.80;8.02;;;;;;;8.99;100.00;99577.59;4953082;28;20041;-78
2022/04/06 11:29:17;;;;;;;30.30;8.63;;;;;;;9.01;100.00;99587.03;4949470;28;20093;-78
2022/04/06 11:31:53;;;;;;;33.15;8.57;;;;;;;9.01;100.00;99575.47;4960451;28;20386;-78